createdAt,value
2022-12-18T00:00:58.184Z,-4.19
2022-12-18T00:03:47.748Z,-4.15
2022-12-18T00:06:19.914Z,-4.13
2022-12-18T00:08:52.080Z,-4.11
2022-12-18T00:11:24.778Z,-4.11
2022-12-18T00:13:58.568Z,-4.08
2022-12-18T00:16:33.899Z,-4.07
2022-12-18T00:19:05.833Z,-4.05
2022-12-18T00:21:37.439Z,-4.02
2022-12-18T00:24:09.711Z,-3.98
2022-12-18T00:26:41.677Z,-3.95
2022-12-18T00:29:16.201Z,-3.95
2022-12-18T00:31:48.150Z,-3.95
2022-12-18T00:34:19.141Z,-3.97
2022-12-18T00:36:51.235Z,-3.98
2022-12-18T00:39:22.329Z,-3.96
2022-12-18T00:42:10.995Z,-3.93
2022-12-18T00:44:42.117Z,-3.92
2022-12-18T00:47:13.258Z,-3.92
2022-12-18T00:49:44.398Z,-3.95
2022-12-18T00:52:15.418Z,-3.96
2022-12-18T00:54:46.596Z,-3.96
2022-12-18T00:57:17.822Z,-3.94
2022-12-18T00:59:51.388Z,-3.92
2022-12-18T01:02:22.899Z,-3.90
2022-12-18T01:04:54.253Z,-3.90
2022-12-18T01:07:25.298Z,-3.86
2022-12-18T01:09:56.294Z,-3.85
2022-12-18T01:12:27.438Z,-3.84
2022-12-18T01:14:58.365Z,-3.85
2022-12-18T01:17:29.433Z,-3.85
2022-12-18T01:20:00.338Z,-3.84
2022-12-18T01:22:31.477Z,-3.85
2022-12-18T01:25:02.738Z,-3.86
2022-12-18T01:27:35.024Z,-3.86
2022-12-18T01:30:07.063Z,-3.84
2022-12-18T01:32:38.133Z,-3.83
2022-12-18T01:35:10.489Z,-3.84
2022-12-18T01:37:41.580Z,-3.86
2022-12-18T01:40:13.897Z,-3.90
2022-12-18T01:42:44.893Z,-3.92
2022-12-18T01:45:30.651Z,-3.94
2022-12-18T01:48:03.947Z,-3.97
2022-12-18T01:50:38.481Z,-4.00
2022-12-18T01:53:13.547Z,-4.01
2022-12-18T01:55:48.847Z,-4.06
2022-12-18T01:58:21.653Z,-4.15
2022-12-18T02:00:52.698Z,-4.24
2022-12-18T02:03:24.020Z,-4.31
2022-12-18T02:06:08.146Z,-4.33
2022-12-18T02:08:46.062Z,-4.35
2022-12-18T02:11:24.674Z,-4.39
2022-12-18T02:14:06.142Z,-4.40
2022-12-18T02:16:47.304Z,-4.42
2022-12-18T02:19:57.487Z,-4.44
2022-12-18T02:22:46.973Z,-4.46
2022-12-18T02:25:31.200Z,-4.47
2022-12-18T02:28:01.890Z,-4.46
2022-12-18T02:30:35.968Z,-4.46
2022-12-18T02:33:09.926Z,-4.47
2022-12-18T02:35:43.568Z,-4.49
2022-12-18T02:38:16.442Z,-4.52
2022-12-18T02:40:48.467Z,-4.55
2022-12-18T02:43:19.772Z,-4.58
2022-12-18T02:45:59.089Z,-4.60
2022-12-18T02:48:35.291Z,-4.62
2022-12-18T02:51:15.328Z,-4.62
2022-12-18T02:53:53.578Z,-4.58
2022-12-18T02:56:31.945Z,-4.57
2022-12-18T02:59:07.860Z,-4.58
2022-12-18T03:01:46.448Z,-4.56
2022-12-18T03:04:23.569Z,-4.55
2022-12-18T03:06:58.786Z,-4.57
2022-12-18T03:09:35.115Z,-4.58
2022-12-18T03:12:26.232Z,-4.59
2022-12-18T03:15:03.104Z,-4.63
2022-12-18T03:17:35.681Z,-4.66
2022-12-18T03:20:12.651Z,-4.66
2022-12-18T03:22:46.757Z,-4.68
2022-12-18T03:25:19.310Z,-4.69
2022-12-18T03:27:52.025Z,-4.70
2022-12-18T03:30:23.686Z,-4.68
2022-12-18T03:33:02.500Z,-4.64
2022-12-18T03:35:37.175Z,-4.62
2022-12-18T03:38:08.470Z,-4.61
2022-12-18T03:40:49.735Z,-4.58
2022-12-18T03:43:29.358Z,-4.53
2022-12-18T03:46:09.539Z,-4.50
2022-12-18T03:48:45.700Z,-4.50
2022-12-18T03:51:25.718Z,-4.49
2022-12-18T03:54:00.667Z,-4.47
2022-12-18T03:56:34.673Z,-4.49
2022-12-18T03:59:06.842Z,-4.51
2022-12-18T04:01:42.349Z,-4.52
2022-12-18T04:04:16.610Z,-4.53
2022-12-18T04:06:49.627Z,-4.53
2022-12-18T04:09:22.887Z,-4.51
2022-12-18T04:11:55.143Z,-4.50
2022-12-18T04:14:26.189Z,-4.49
2022-12-18T04:16:57.141Z,-4.48
2022-12-18T04:19:28.385Z,-4.48
2022-12-18T04:21:59.847Z,-4.47
2022-12-18T04:24:31.004Z,-4.48
2022-12-18T04:27:02.228Z,-4.50
2022-12-18T04:29:33.415Z,-4.53
2022-12-18T04:32:04.379Z,-4.55
2022-12-18T04:34:35.554Z,-4.57
2022-12-18T04:37:06.407Z,-4.60
2022-12-18T04:39:38.051Z,-4.67
2022-12-18T04:42:09.071Z,-4.72
2022-12-18T04:44:39.918Z,-4.75
2022-12-18T04:47:11.045Z,-4.74
2022-12-18T04:49:42.002Z,-4.79
2022-12-18T04:52:12.892Z,-4.85
2022-12-18T04:54:44.066Z,-4.89
2022-12-18T04:57:15.100Z,-4.92
2022-12-18T04:59:46.174Z,-4.92
2022-12-18T05:02:17.308Z,-4.91
2022-12-18T05:04:48.741Z,-4.88
2022-12-18T05:07:19.711Z,-4.84
2022-12-18T05:09:50.696Z,-4.82
2022-12-18T05:12:21.780Z,-4.82
2022-12-18T05:14:53.022Z,-4.83
2022-12-18T05:17:24.183Z,-4.85
2022-12-18T05:19:55.106Z,-4.84
2022-12-18T05:22:26.946Z,-4.84
2022-12-18T05:24:56.327Z,-4.87
2022-12-18T05:27:27.329Z,-4.87
2022-12-18T05:29:58.395Z,-4.84
2022-12-18T05:32:29.523Z,-4.83
2022-12-18T05:35:00.676Z,-4.84
2022-12-18T05:37:32.153Z,-4.80
2022-12-18T05:40:03.215Z,-4.78
2022-12-18T05:42:34.408Z,-4.75
2022-12-18T05:45:06.044Z,-4.71
2022-12-18T05:47:37.372Z,-4.71
2022-12-18T05:50:10.371Z,-4.69
2022-12-18T05:52:41.296Z,-4.68
2022-12-18T05:55:12.681Z,-4.70
2022-12-18T05:57:43.739Z,-4.76
2022-12-18T06:00:17.391Z,-4.81
2022-12-18T06:02:51.636Z,-4.86
2022-12-18T06:05:23.098Z,-4.89
2022-12-18T06:07:54.242Z,-4.92
2022-12-18T06:10:25.330Z,-4.93
2022-12-18T06:12:56.120Z,-4.96
2022-12-18T06:15:27.000Z,-4.99
2022-12-18T06:17:58.138Z,-5.00
2022-12-18T06:20:33.233Z,-4.99
2022-12-18T06:23:04.924Z,-4.99
2022-12-18T06:25:35.899Z,-5.02
2022-12-18T06:28:07.954Z,-5.06
2022-12-18T06:30:38.923Z,-5.07
2022-12-18T06:33:10.112Z,-5.07
2022-12-18T06:35:41.280Z,-5.09
2022-12-18T06:38:12.343Z,-5.08
2022-12-18T06:40:43.170Z,-5.07
2022-12-18T06:43:14.240Z,-5.07
2022-12-18T06:45:45.320Z,-5.07
2022-12-18T06:48:16.747Z,-5.07
2022-12-18T06:50:47.867Z,-5.08
2022-12-18T06:53:18.881Z,-5.08
2022-12-18T06:55:49.919Z,-5.07
2022-12-18T06:58:21.027Z,-5.07
2022-12-18T07:00:52.985Z,-5.08
2022-12-18T07:03:22.258Z,-5.07
2022-12-18T07:05:53.154Z,-5.08
2022-12-18T07:08:24.335Z,-5.10
2022-12-18T07:10:56.467Z,-5.12
2022-12-18T07:13:27.972Z,-5.14
2022-12-18T07:16:06.107Z,-5.15
2022-12-18T07:18:40.034Z,-5.17
2022-12-18T07:21:14.195Z,-5.22
2022-12-18T07:23:45.858Z,-5.23
2022-12-18T07:26:18.949Z,-5.31
2022-12-18T07:28:50.935Z,-5.41
2022-12-18T07:31:23.869Z,-5.47
2022-12-18T07:33:55.262Z,-5.50
2022-12-18T07:36:26.953Z,-5.51
2022-12-18T07:38:57.097Z,-5.52
2022-12-18T07:41:28.167Z,-5.55
2022-12-18T07:43:59.148Z,-5.55
2022-12-18T07:46:29.914Z,-5.56
2022-12-18T07:49:01.006Z,-5.59
2022-12-18T07:51:32.096Z,-5.60
2022-12-18T07:54:04.572Z,-5.56
2022-12-18T07:56:35.281Z,-5.53
2022-12-18T07:59:09.196Z,-5.49
2022-12-18T08:01:40.211Z,-5.45
2022-12-18T08:04:11.455Z,-5.42
2022-12-18T08:06:46.241Z,-5.42
2022-12-18T08:09:19.406Z,-5.40
2022-12-18T08:11:50.291Z,-5.40
2022-12-18T08:14:21.329Z,-5.39
2022-12-18T08:16:52.514Z,-5.36
2022-12-18T08:19:23.488Z,-5.34
2022-12-18T08:21:57.180Z,-5.33
2022-12-18T08:24:28.132Z,-5.29
2022-12-18T08:27:27.904Z,-5.27
2022-12-18T08:29:50.461Z,-5.32
2022-12-18T08:32:21.503Z,-5.35
2022-12-18T08:34:52.438Z,-5.35
2022-12-18T08:37:23.773Z,-5.37
2022-12-18T08:39:54.736Z,-5.43
2022-12-18T08:42:43.435Z,-5.47
2022-12-18T08:45:14.608Z,-5.53
2022-12-18T08:47:45.484Z,-5.52
2022-12-18T08:50:18.541Z,-5.53
2022-12-18T08:52:49.578Z,-5.53
2022-12-18T08:55:20.802Z,-5.57
2022-12-18T08:57:53.342Z,-5.63
2022-12-18T09:00:25.005Z,-5.69
2022-12-18T09:02:57.126Z,-5.72
2022-12-18T09:05:28.238Z,-5.71
2022-12-18T09:07:59.202Z,-5.67
2022-12-18T09:10:30.353Z,-5.65
2022-12-18T09:13:01.620Z,-5.64
2022-12-18T09:15:32.711Z,-5.58
2022-12-18T09:18:03.732Z,-5.51
2022-12-18T09:20:34.731Z,-5.44
2022-12-18T09:23:05.618Z,-5.41
2022-12-18T09:25:37.893Z,-5.38
2022-12-18T09:28:15.616Z,-5.33
2022-12-18T09:30:49.795Z,-5.26
2022-12-18T09:33:21.345Z,-5.24
2022-12-18T09:35:52.424Z,-5.20
2022-12-18T09:38:24.288Z,-5.15
2022-12-18T09:40:59.986Z,-5.11
2022-12-18T09:43:36.356Z,-5.08
2022-12-18T09:46:12.872Z,-5.08
2022-12-18T09:48:48.425Z,-5.07
2022-12-18T09:51:23.150Z,-5.12
2022-12-18T09:53:59.582Z,-5.16
2022-12-18T09:56:36.648Z,-5.15
2022-12-18T09:59:08.986Z,-5.09
2022-12-18T10:01:44.484Z,-5.01
2022-12-18T10:04:15.695Z,-4.92
2022-12-18T10:06:54.298Z,-4.90
2022-12-18T10:09:36.020Z,-4.86
2022-12-18T10:12:15.971Z,-4.82
2022-12-18T10:14:54.140Z,-4.82
2022-12-18T10:17:37.707Z,-4.79
2022-12-18T10:20:18.039Z,-4.75
2022-12-18T10:22:59.136Z,-4.69
2022-12-18T10:25:36.773Z,-4.71
2022-12-18T10:28:16.903Z,-4.83
2022-12-18T10:30:47.824Z,-4.93
2022-12-18T10:33:21.386Z,-4.95
2022-12-18T10:35:54.647Z,-4.96
2022-12-18T10:38:28.720Z,-4.93
2022-12-18T10:41:01.353Z,-4.91
2022-12-18T10:43:34.390Z,-4.89
2022-12-18T10:46:18.737Z,-4.84
2022-12-18T10:48:57.194Z,-4.74
2022-12-18T10:51:31.934Z,-4.73
2022-12-18T10:54:06.411Z,-4.74
2022-12-18T10:56:39.082Z,-4.76
2022-12-18T10:59:12.724Z,-4.76
2022-12-18T11:04:11.717Z,-4.67
2022-12-18T11:06:58.521Z,-4.67
2022-12-18T11:09:32.814Z,-4.65
2022-12-18T11:12:07.200Z,-4.62
2022-12-18T11:14:49.563Z,-4.65
2022-12-18T11:17:30.285Z,-4.78
2022-12-18T11:20:03.631Z,-4.88
2022-12-18T11:22:37.215Z,-4.98
2022-12-18T11:25:32.378Z,-5.10
2022-12-18T11:28:05.487Z,-5.18
2022-12-18T11:30:37.927Z,-5.21
2022-12-18T11:33:11.989Z,-5.18
2022-12-18T11:35:51.736Z,-5.12
2022-12-18T11:38:26.530Z,-5.04
2022-12-18T11:41:02.662Z,-4.98
2022-12-18T11:43:40.255Z,-4.97
2022-12-18T11:46:19.823Z,-4.95
2022-12-18T11:48:58.322Z,-4.92
2022-12-18T11:51:39.561Z,-4.93
2022-12-18T11:54:16.871Z,-5.01
2022-12-18T11:56:51.664Z,-5.01
2022-12-18T11:59:34.408Z,-5.00
2022-12-18T12:02:19.746Z,-5.01
2022-12-18T12:05:15.084Z,-5.01
2022-12-18T12:07:56.360Z,-5.01
2022-12-18T12:10:43.407Z,-4.96
2022-12-18T12:13:31.522Z,-4.89
2022-12-18T12:16:12.118Z,-4.83
2022-12-18T12:18:58.770Z,-4.79
2022-12-18T12:21:39.483Z,-4.78
2022-12-18T12:24:21.832Z,-4.76
2022-12-18T12:27:00.756Z,-4.73
2022-12-18T12:29:45.062Z,-4.77
2022-12-18T12:32:32.347Z,-4.88
2022-12-18T12:35:17.801Z,-5.01
2022-12-18T12:37:54.954Z,-5.04
2022-12-18T12:43:29.409Z,-5.09
2022-12-18T12:46:05.378Z,-5.16
2022-12-18T12:48:44.618Z,-5.18
2022-12-18T12:51:18.404Z,-5.23
2022-12-18T12:53:50.179Z,-5.31
2022-12-18T12:56:24.441Z,-5.41
2022-12-18T12:59:04.291Z,-5.48
2022-12-18T13:01:43.617Z,-5.54
2022-12-18T13:04:26.017Z,-5.59
2022-12-18T13:07:05.894Z,-5.67
2022-12-18T13:09:58.274Z,-5.75
2022-12-18T13:12:50.029Z,-5.80
2022-12-18T13:15:26.218Z,-5.82
2022-12-18T13:18:21.493Z,-5.86
2022-12-18T13:21:04.042Z,-5.88
2022-12-18T13:23:39.749Z,-5.88
2022-12-18T13:26:43.217Z,-5.91
2022-12-18T13:29:33.899Z,-5.92
2022-12-18T13:32:05.384Z,-5.92
2022-12-18T13:34:35.694Z,-5.90
2022-12-18T13:37:45.710Z,-5.93
2022-12-18T13:40:56.087Z,-6.01
2022-12-18T13:43:35.640Z,-6.04
2022-12-18T13:46:19.957Z,-6.08
2022-12-18T13:48:57.331Z,-6.09
2022-12-18T13:51:29.794Z,-6.07
2022-12-18T13:54:03.944Z,-6.07
2022-12-18T13:56:35.972Z,-6.04
2022-12-18T13:59:22.284Z,-6.04
2022-12-18T14:01:58.327Z,-6.02
2022-12-18T14:04:33.690Z,-6.02
2022-12-18T14:07:09.630Z,-6.05
2022-12-18T14:09:44.642Z,-6.11
2022-12-18T14:12:40.349Z,-6.15
2022-12-18T14:15:26.389Z,-6.24
2022-12-18T14:18:00.172Z,-6.33
2022-12-18T14:20:34.007Z,-6.39
2022-12-18T14:23:05.877Z,-6.45
2022-12-18T14:25:35.444Z,-6.48
2022-12-18T14:28:17.715Z,-6.53
2022-12-18T14:30:49.318Z,-6.57
2022-12-18T14:33:21.957Z,-6.59
2022-12-18T14:36:01.735Z,-6.60
2022-12-18T14:38:34.759Z,-6.55
2022-12-18T14:41:07.883Z,-6.50
2022-12-18T14:43:40.874Z,-6.45
2022-12-18T14:46:30.921Z,-6.42
2022-12-18T14:49:03.823Z,-6.38
2022-12-18T14:51:36.599Z,-6.35
2022-12-18T14:54:16.548Z,-6.30
2022-12-18T14:56:50.793Z,-6.26
2022-12-18T14:59:25.241Z,-6.21
2022-12-18T15:02:04.232Z,-6.21
2022-12-18T15:04:40.327Z,-6.20
2022-12-18T15:07:17.242Z,-6.21
2022-12-18T15:10:05.529Z,-6.22
2022-12-18T15:12:41.062Z,-6.23
2022-12-18T15:15:43.430Z,-6.20
2022-12-18T15:18:20.633Z,-6.21
2022-12-18T15:20:54.206Z,-6.21
2022-12-18T15:23:27.394Z,-6.20
2022-12-18T15:26:03.415Z,-6.20
2022-12-18T15:28:39.699Z,-6.21
2022-12-18T15:31:26.779Z,-6.21
2022-12-18T15:34:16.396Z,-6.24
2022-12-18T15:36:47.292Z,-6.29
2022-12-18T15:39:18.563Z,-6.36
2022-12-18T15:42:07.598Z,-6.48
2022-12-18T15:44:38.917Z,-6.61
2022-12-18T15:47:14.515Z,-6.66
2022-12-18T15:49:45.628Z,-6.67
2022-12-18T15:52:26.976Z,-6.67
2022-12-18T15:55:15.891Z,-6.70
2022-12-18T15:57:47.230Z,-6.76
2022-12-18T16:00:19.717Z,-6.83
2022-12-18T16:02:50.763Z,-6.88
2022-12-18T16:05:24.089Z,-6.90
2022-12-18T16:07:55.151Z,-6.92
2022-12-18T16:10:27.303Z,-6.92
2022-12-18T16:12:58.497Z,-6.93
2022-12-18T16:15:29.562Z,-6.93
2022-12-18T16:18:00.667Z,-6.92
2022-12-18T16:20:31.677Z,-6.91
2022-12-18T16:23:02.855Z,-6.90
2022-12-18T16:25:34.371Z,-6.89
2022-12-18T16:28:05.356Z,-6.85
2022-12-18T16:30:38.566Z,-6.84
2022-12-18T16:33:10.737Z,-6.85
2022-12-18T16:35:41.917Z,-6.87
2022-12-18T16:38:13.984Z,-6.90
2022-12-18T16:40:58.703Z,-6.95
2022-12-18T16:43:29.823Z,-7.02
2022-12-18T16:46:01.927Z,-7.05
2022-12-18T16:48:32.876Z,-7.08
2022-12-18T16:51:05.866Z,-7.09
2022-12-18T16:53:36.987Z,-7.11
2022-12-18T16:56:08.428Z,-7.10
2022-12-18T16:58:39.307Z,-7.08
2022-12-18T17:01:13.364Z,-7.07
2022-12-18T17:03:45.065Z,-7.07
2022-12-18T17:06:17.660Z,-7.07
2022-12-18T17:08:50.270Z,-7.08
2022-12-18T17:11:21.865Z,-7.10
2022-12-18T17:13:53.059Z,-7.11
2022-12-18T17:16:24.708Z,-7.11
2022-12-18T17:18:55.028Z,-7.13
2022-12-18T17:21:26.172Z,-7.16
2022-12-18T17:23:57.356Z,-7.21
2022-12-18T17:26:28.587Z,-7.23
2022-12-18T17:29:00.901Z,-7.23
2022-12-18T17:31:33.097Z,-7.27
2022-12-18T17:34:04.455Z,-7.32
2022-12-18T17:36:35.516Z,-7.34
2022-12-18T17:39:08.052Z,-7.34
2022-12-18T17:41:39.251Z,-7.35
2022-12-18T17:44:10.313Z,-7.37
2022-12-18T17:46:43.826Z,-7.41
2022-12-18T17:49:15.678Z,-7.48
2022-12-18T17:51:46.594Z,-7.56
2022-12-18T17:54:17.563Z,-7.62
2022-12-18T17:56:49.358Z,-7.66
2022-12-18T17:59:20.989Z,-7.70
2022-12-18T18:01:52.078Z,-7.74
2022-12-18T18:04:23.258Z,-7.77
2022-12-18T18:06:54.272Z,-7.79
2022-12-18T18:09:25.437Z,-7.82
2022-12-18T18:12:14.684Z,-7.85
2022-12-18T18:14:45.753Z,-7.90
2022-12-18T18:17:16.807Z,-7.93
2022-12-18T18:19:49.694Z,-7.96
2022-12-18T18:22:21.223Z,-7.98
2022-12-18T18:24:55.372Z,-8.02
2022-12-18T18:27:26.654Z,-8.04
2022-12-18T18:29:58.199Z,-8.03
2022-12-18T18:32:29.373Z,-8.03
2022-12-18T18:35:00.685Z,-8.03
2022-12-18T18:37:31.656Z,-8.01
2022-12-18T18:40:02.971Z,-7.99
2022-12-18T18:42:34.117Z,-7.96
2022-12-18T18:45:05.463Z,-7.96
2022-12-18T18:47:36.649Z,-8.00
2022-12-18T18:50:09.363Z,-8.02
2022-12-18T18:52:40.593Z,-8.04
2022-12-18T18:55:25.332Z,-8.08
2022-12-18T18:57:57.037Z,-8.09
2022-12-18T19:00:28.448Z,-8.11
2022-12-18T19:03:00.911Z,-8.13
2022-12-18T19:05:33.921Z,-8.16
2022-12-18T19:08:05.370Z,-8.20
2022-12-18T19:10:40.885Z,-8.22
2022-12-18T19:13:22.338Z,-8.23
2022-12-18T19:15:55.565Z,-8.24
2022-12-18T19:18:27.245Z,-8.27
2022-12-18T19:21:00.111Z,-8.35
2022-12-18T19:23:31.887Z,-8.41
2022-12-18T19:29:03.551Z,-8.49
2022-12-18T19:31:36.487Z,-8.50
2022-12-18T19:34:09.725Z,-8.51
2022-12-18T19:36:42.190Z,-8.53
2022-12-18T19:39:14.947Z,-8.52
2022-12-18T19:41:46.526Z,-8.56
2022-12-18T19:44:18.780Z,-8.58
2022-12-18T19:46:52.649Z,-8.60
2022-12-18T19:49:23.808Z,-8.63
2022-12-18T19:51:55.399Z,-8.65
2022-12-18T19:54:26.365Z,-8.67
2022-12-18T19:56:57.693Z,-8.70
2022-12-18T19:59:28.689Z,-8.71
2022-12-18T20:01:59.970Z,-8.76
2022-12-18T20:04:32.004Z,-8.83
2022-12-18T20:07:01.923Z,-8.85
2022-12-18T20:09:33.290Z,-8.85
2022-12-18T20:12:04.858Z,-8.85
2022-12-18T20:14:35.874Z,-8.86
2022-12-18T20:17:06.921Z,-8.86
2022-12-18T20:19:38.221Z,-8.85
2022-12-18T20:22:09.624Z,-8.86
2022-12-18T20:24:40.945Z,-8.88
2022-12-18T20:27:16.152Z,-8.89
2022-12-18T20:29:49.657Z,-8.88
2022-12-18T20:32:20.903Z,-8.85
2022-12-18T20:34:52.186Z,-8.81
2022-12-18T20:37:23.985Z,-8.78
2022-12-18T20:39:56.388Z,-8.76
2022-12-18T20:42:27.475Z,-8.74
2022-12-18T20:44:58.434Z,-8.72
2022-12-18T20:47:29.288Z,-8.68
2022-12-18T20:50:00.966Z,-8.64
2022-12-18T20:52:31.868Z,-8.60
2022-12-18T20:55:03.038Z,-8.56
2022-12-18T20:57:34.014Z,-8.52
2022-12-18T21:00:07.272Z,-8.51
2022-12-18T21:02:38.714Z,-8.53
2022-12-18T21:05:10.834Z,-8.51
2022-12-18T21:07:41.812Z,-8.50
2022-12-18T21:10:13.015Z,-8.49
2022-12-18T21:12:58.866Z,-8.56
2022-12-18T21:15:31.074Z,-8.65
2022-12-18T21:18:01.879Z,-8.66
2022-12-18T21:20:32.977Z,-8.64
2022-12-18T21:23:16.595Z,-8.60
2022-12-18T21:25:48.353Z,-8.57
2022-12-18T21:28:25.742Z,-8.53
2022-12-18T21:30:57.998Z,-8.54
2022-12-18T21:33:27.394Z,-8.52
2022-12-18T21:35:58.514Z,-8.51
2022-12-18T21:38:30.432Z,-8.47
2022-12-18T21:41:01.640Z,-8.45
2022-12-18T21:43:50.278Z,-8.40
2022-12-18T21:46:21.306Z,-8.36
2022-12-18T21:48:52.424Z,-8.33
2022-12-18T21:51:23.254Z,-8.32
2022-12-18T21:53:54.123Z,-8.31
2022-12-18T21:56:25.115Z,-8.32
2022-12-18T21:58:56.833Z,-8.32
2022-12-18T22:01:32.706Z,-8.33
2022-12-18T22:04:08.953Z,-8.33
2022-12-18T22:06:40.060Z,-8.31
2022-12-18T22:09:12.507Z,-8.26
2022-12-18T22:11:43.842Z,-8.27
2022-12-18T22:14:15.022Z,-8.27
2022-12-18T22:16:46.684Z,-8.28
2022-12-18T22:19:17.865Z,-8.24
2022-12-18T22:21:50.381Z,-8.18
2022-12-18T22:24:22.603Z,-8.13
2022-12-18T22:27:01.631Z,-8.07
2022-12-18T22:29:50.985Z,-8.02
2022-12-18T22:32:30.781Z,-7.98
2022-12-18T22:35:08.381Z,-8.00
2022-12-18T22:37:41.583Z,-8.05
2022-12-18T22:40:23.881Z,-8.07
2022-12-18T22:42:56.064Z,-8.03
2022-12-18T22:45:27.898Z,-8.00
2022-12-18T22:47:58.826Z,-7.98
2022-12-18T22:50:30.200Z,-7.93
2022-12-18T22:53:01.357Z,-7.89
2022-12-18T22:55:32.256Z,-7.87
2022-12-18T22:58:03.375Z,-7.86
2022-12-18T23:00:34.702Z,-7.87
2022-12-18T23:03:07.301Z,-7.87
2022-12-18T23:05:38.341Z,-7.86
2022-12-18T23:08:09.314Z,-7.85
2022-12-18T23:10:41.245Z,-7.84
2022-12-18T23:13:12.447Z,-7.81
2022-12-18T23:15:45.198Z,-7.79
2022-12-18T23:18:16.208Z,-7.77
2022-12-18T23:20:47.251Z,-7.74
2022-12-18T23:23:18.601Z,-7.73
2022-12-18T23:25:49.912Z,-7.72
2022-12-18T23:28:20.817Z,-7.72
2022-12-18T23:30:51.987Z,-7.71
2022-12-18T23:33:23.077Z,-7.69
2022-12-18T23:35:58.558Z,-7.66
2022-12-18T23:38:29.454Z,-7.66
2022-12-18T23:41:00.875Z,-7.66
2022-12-18T23:43:32.046Z,-7.63
2022-12-18T23:46:03.117Z,-7.62
2022-12-18T23:48:34.279Z,-7.59
2022-12-18T23:51:10.198Z,-7.56
2022-12-18T23:53:41.345Z,-7.54
2022-12-18T23:56:13.990Z,-7.53
2022-12-18T23:58:45.654Z,-7.51
